sensor_id;sensor_type;location;lat;lon;timestamp;P1;durP1;ratioP1;P2;durP2;ratioP2
45676;SDS011;31390;51.186;6.830;2022-08-30T00:02:15;6.18;;;2.85;;
45676;SDS011;31390;51.186;6.830;2022-08-30T00:04:42;4.90;;;3.10;;
45676;SDS011;31390;51.186;6.830;2022-08-30T00:07:09;5.35;;;2.90;;
45676;SDS011;31390;51.186;6.830;2022-08-30T00:09:35;4.53;;;3.22;;
45676;SDS011;31390;51.186;6.830;2022-08-30T00:12:02;6.13;;;2.90;;
45676;SDS011;31390;51.186;6.830;2022-08-30T00:14:29;4.53;;;3.25;;
45676;SDS011;31390;51.186;6.830;2022-08-30T00:16:56;4.47;;;3.20;;
45676;SDS011;31390;51.186;6.830;2022-08-30T00:19:22;5.85;;;3.33;;
45676;SDS011;31390;51.186;6.830;2022-08-30T00:21:50;5.07;;;3.22;;
45676;SDS011;31390;51.186;6.830;2022-08-30T00:24:16;5.95;;;3.30;;
45676;SDS011;31390;51.186;6.830;2022-08-30T00:26:43;4.47;;;3.25;;
45676;SDS011;31390;51.186;6.830;2022-08-30T00:29:09;5.60;;;3.42;;
45676;SDS011;31390;51.186;6.830;2022-08-30T00:31:36;5.43;;;3.45;;
45676;SDS011;31390;51.186;6.830;2022-08-30T00:34:03;4.43;;;2.90;;
45676;SDS011;31390;51.186;6.830;2022-08-30T00:36:30;4.00;;;3.00;;
45676;SDS011;31390;51.186;6.830;2022-08-30T00:38:56;4.85;;;3.60;;
45676;SDS011;31390;51.186;6.830;2022-08-30T00:41:23;7.55;;;3.42;;
45676;SDS011;31390;51.186;6.830;2022-08-30T00:43:49;6.10;;;3.50;;
45676;SDS011;31390;51.186;6.830;2022-08-30T00:46:17;5.70;;;3.05;;
45676;SDS011;31390;51.186;6.830;2022-08-30T00:48:44;5.03;;;3.30;;
45676;SDS011;31390;51.186;6.830;2022-08-30T00:51:13;4.32;;;3.05;;
45676;SDS011;31390;51.186;6.830;2022-08-30T00:53:42;6.15;;;3.65;;
45676;SDS011;31390;51.186;6.830;2022-08-30T00:56:11;6.95;;;3.65;;
45676;SDS011;31390;51.186;6.830;2022-08-30T00:58:39;5.57;;;3.15;;
45676;SDS011;31390;51.186;6.830;2022-08-30T01:01:07;5.85;;;3.22;;
45676;SDS011;31390;51.186;6.830;2022-08-30T01:03:34;7.22;;;3.60;;
45676;SDS011;31390;51.186;6.830;2022-08-30T01:06:02;5.03;;;3.50;;
45676;SDS011;31390;51.186;6.830;2022-08-30T01:08:29;6.30;;;3.42;;
45676;SDS011;31390;51.186;6.830;2022-08-30T01:10:56;5.85;;;3.22;;
45676;SDS011;31390;51.186;6.830;2022-08-30T01:13:23;7.55;;;4.00;;
45676;SDS011;31390;51.186;6.830;2022-08-30T01:15:50;4.60;;;3.15;;
45676;SDS011;31390;51.186;6.830;2022-08-30T01:18:18;4.85;;;3.45;;
45676;SDS011;31390;51.186;6.830;2022-08-30T01:20:50;4.53;;;3.72;;
45676;SDS011;31390;51.186;6.830;2022-08-30T01:23:19;6.00;;;3.35;;
45676;SDS011;31390;51.186;6.830;2022-08-30T01:25:47;4.05;;;3.45;;
45676;SDS011;31390;51.186;6.830;2022-08-30T01:28:19;5.80;;;3.45;;
45676;SDS011;31390;51.186;6.830;2022-08-30T01:30:46;6.07;;;3.58;;
45676;SDS011;31390;51.186;6.830;2022-08-30T01:33:13;4.72;;;3.78;;
45676;SDS011;31390;51.186;6.830;2022-08-30T01:35:49;5.88;;;3.70;;
45676;SDS011;31390;51.186;6.830;2022-08-30T01:38:20;5.72;;;3.88;;
45676;SDS011;31390;51.186;6.830;2022-08-30T01:40:48;5.32;;;3.50;;
45676;SDS011;31390;51.186;6.830;2022-08-30T01:43:15;4.28;;;3.35;;
45676;SDS011;31390;51.186;6.830;2022-08-30T01:45:42;5.30;;;3.45;;
45676;SDS011;31390;51.186;6.830;2022-08-30T01:48:09;4.32;;;3.55;;
45676;SDS011;31390;51.186;6.830;2022-08-30T01:50:39;4.88;;;3.50;;
45676;SDS011;31390;51.186;6.830;2022-08-30T01:53:06;5.45;;;3.70;;
45676;SDS011;31390;51.186;6.830;2022-08-30T01:55:38;7.10;;;3.78;;
45676;SDS011;31390;51.186;6.830;2022-08-30T01:58:05;6.65;;;3.25;;
45676;SDS011;31390;51.186;6.830;2022-08-30T02:00:32;6.40;;;3.72;;
45676;SDS011;31390;51.186;6.830;2022-08-30T02:02:58;5.40;;;3.83;;
45676;SDS011;31390;51.186;6.830;2022-08-30T02:05:25;5.97;;;3.63;;
45676;SDS011;31390;51.186;6.830;2022-08-30T02:07:51;5.07;;;3.78;;
45676;SDS011;31390;51.186;6.830;2022-08-30T02:10:19;5.22;;;3.70;;
45676;SDS011;31390;51.186;6.830;2022-08-30T02:12:46;5.07;;;3.80;;
45676;SDS011;31390;51.186;6.830;2022-08-30T02:15:12;6.15;;;3.70;;
45676;SDS011;31390;51.186;6.830;2022-08-30T02:17:39;6.93;;;4.20;;
45676;SDS011;31390;51.186;6.830;2022-08-30T02:20:07;3.95;;;3.50;;
45676;SDS011;31390;51.186;6.830;2022-08-30T02:22:33;5.95;;;3.70;;
45676;SDS011;31390;51.186;6.830;2022-08-30T02:25:00;8.07;;;4.53;;
45676;SDS011;31390;51.186;6.830;2022-08-30T02:27:26;4.78;;;3.30;;
45676;SDS011;31390;51.186;6.830;2022-08-30T02:29:53;4.68;;;3.90;;
45676;SDS011;31390;51.186;6.830;2022-08-30T02:32:19;6.43;;;3.65;;
45676;SDS011;31390;51.186;6.830;2022-08-30T02:34:46;6.13;;;3.80;;
45676;SDS011;31390;51.186;6.830;2022-08-30T02:37:13;4.78;;;3.58;;
45676;SDS011;31390;51.186;6.830;2022-08-30T02:39:40;5.00;;;3.80;;
45676;SDS011;31390;51.186;6.830;2022-08-30T02:42:07;6.40;;;4.20;;
45676;SDS011;31390;51.186;6.830;2022-08-30T02:44:33;6.90;;;4.03;;
45676;SDS011;31390;51.186;6.830;2022-08-30T02:47:00;6.60;;;4.10;;
45676;SDS011;31390;51.186;6.830;2022-08-30T02:49:26;4.90;;;3.95;;
45676;SDS011;31390;51.186;6.830;2022-08-30T02:52:01;5.45;;;4.28;;
45676;SDS011;31390;51.186;6.830;2022-08-30T02:54:28;6.20;;;3.92;;
45676;SDS011;31390;51.186;6.830;2022-08-30T02:56:58;4.97;;;3.67;;
45676;SDS011;31390;51.186;6.830;2022-08-30T02:59:28;7.20;;;4.13;;
45676;SDS011;31390;51.186;6.830;2022-08-30T03:01:54;5.35;;;3.80;;
45676;SDS011;31390;51.186;6.830;2022-08-30T03:04:21;5.03;;;3.63;;
45676;SDS011;31390;51.186;6.830;2022-08-30T03:06:52;5.97;;;3.92;;
45676;SDS011;31390;51.186;6.830;2022-08-30T03:09:18;7.55;;;4.30;;
45676;SDS011;31390;51.186;6.830;2022-08-30T03:11:45;7.43;;;4.07;;
45676;SDS011;31390;51.186;6.830;2022-08-30T03:14:11;6.70;;;4.07;;
45676;SDS011;31390;51.186;6.830;2022-08-30T03:16:38;6.30;;;4.18;;
45676;SDS011;31390;51.186;6.830;2022-08-30T03:19:05;6.75;;;4.22;;
45676;SDS011;31390;51.186;6.830;2022-08-30T03:21:31;7.25;;;4.07;;
45676;SDS011;31390;51.186;6.830;2022-08-30T03:23:58;5.70;;;4.10;;
45676;SDS011;31390;51.186;6.830;2022-08-30T03:26:24;4.82;;;3.60;;
45676;SDS011;31390;51.186;6.830;2022-08-30T03:28:50;6.60;;;4.13;;
45676;SDS011;31390;51.186;6.830;2022-08-30T03:31:18;7.00;;;4.35;;
45676;SDS011;31390;51.186;6.830;2022-08-30T03:33:44;5.68;;;4.30;;
45676;SDS011;31390;51.186;6.830;2022-08-30T03:36:11;7.43;;;4.40;;
45676;SDS011;31390;51.186;6.830;2022-08-30T03:38:38;6.15;;;4.25;;
45676;SDS011;31390;51.186;6.830;2022-08-30T03:41:04;6.10;;;4.03;;
45676;SDS011;31390;51.186;6.830;2022-08-30T03:43:32;8.15;;;4.35;;
45676;SDS011;31390;51.186;6.830;2022-08-30T03:45:59;4.90;;;4.05;;
45676;SDS011;31390;51.186;6.830;2022-08-30T03:48:26;7.03;;;4.50;;
45676;SDS011;31390;51.186;6.830;2022-08-30T03:50:53;5.78;;;3.95;;
45676;SDS011;31390;51.186;6.830;2022-08-30T03:53:19;5.85;;;4.10;;
45676;SDS011;31390;51.186;6.830;2022-08-30T03:55:46;4.43;;;3.70;;
45676;SDS011;31390;51.186;6.830;2022-08-30T03:58:14;4.97;;;4.25;;
45676;SDS011;31390;51.186;6.830;2022-08-30T04:00:44;7.32;;;4.20;;
45676;SDS011;31390;51.186;6.830;2022-08-30T04:03:11;5.95;;;4.28;;
45676;SDS011;31390;51.186;6.830;2022-08-30T04:05:37;6.78;;;4.13;;
45676;SDS011;31390;51.186;6.830;2022-08-30T04:08:04;8.00;;;4.07;;
45676;SDS011;31390;51.186;6.830;2022-08-30T04:10:31;4.40;;;4.00;;
45676;SDS011;31390;51.186;6.830;2022-08-30T04:12:58;7.63;;;3.63;;
45676;SDS011;31390;51.186;6.830;2022-08-30T04:15:24;5.45;;;3.70;;
45676;SDS011;31390;51.186;6.830;2022-08-30T04:17:51;7.18;;;3.83;;
45676;SDS011;31390;51.186;6.830;2022-08-30T04:20:19;8.52;;;4.13;;
45676;SDS011;31390;51.186;6.830;2022-08-30T04:22:45;6.78;;;4.07;;
45676;SDS011;31390;51.186;6.830;2022-08-30T04:25:12;5.97;;;4.30;;
45676;SDS011;31390;51.186;6.830;2022-08-30T04:27:41;4.78;;;4.00;;
45676;SDS011;31390;51.186;6.830;2022-08-30T04:30:10;6.50;;;4.85;;
45676;SDS011;31390;51.186;6.830;2022-08-30T04:32:37;6.72;;;4.57;;
45676;SDS011;31390;51.186;6.830;2022-08-30T04:35:10;6.53;;;5.22;;
45676;SDS011;31390;51.186;6.830;2022-08-30T04:37:40;5.90;;;4.60;;
45676;SDS011;31390;51.186;6.830;2022-08-30T04:40:08;7.18;;;4.50;;
45676;SDS011;31390;51.186;6.830;2022-08-30T04:42:41;9.52;;;4.72;;
45676;SDS011;31390;51.186;6.830;2022-08-30T04:45:18;6.45;;;4.30;;
45676;SDS011;31390;51.186;6.830;2022-08-30T04:48:04;8.30;;;5.15;;
45676;SDS011;31390;51.186;6.830;2022-08-30T04:50:41;5.53;;;4.72;;
45676;SDS011;31390;51.186;6.830;2022-08-30T04:53:40;6.75;;;4.50;;
45676;SDS011;31390;51.186;6.830;2022-08-30T04:56:16;9.05;;;4.70;;
45676;SDS011;31390;51.186;6.830;2022-08-30T04:58:52;7.82;;;5.20;;
45676;SDS011;31390;51.186;6.830;2022-08-30T05:01:26;7.53;;;5.10;;
45676;SDS011;31390;51.186;6.830;2022-08-30T05:03:57;7.28;;;4.55;;
45676;SDS011;31390;51.186;6.830;2022-08-30T05:06:29;7.03;;;4.90;;
45676;SDS011;31390;51.186;6.830;2022-08-30T05:09:01;9.43;;;5.20;;
45676;SDS011;31390;51.186;6.830;2022-08-30T05:11:34;8.45;;;4.85;;
45676;SDS011;31390;51.186;6.830;2022-08-30T05:14:03;8.07;;;4.85;;
45676;SDS011;31390;51.186;6.830;2022-08-30T05:16:33;7.05;;;4.75;;
45676;SDS011;31390;51.186;6.830;2022-08-30T05:19:00;7.95;;;4.82;;
45676;SDS011;31390;51.186;6.830;2022-08-30T05:21:28;7.90;;;5.40;;
45676;SDS011;31390;51.186;6.830;2022-08-30T05:23:55;6.93;;;4.95;;
45676;SDS011;31390;51.186;6.830;2022-08-30T05:26:24;7.13;;;5.28;;
45676;SDS011;31390;51.186;6.830;2022-08-30T05:28:50;10.32;;;5.20;;
45676;SDS011;31390;51.186;6.830;2022-08-30T05:31:18;6.18;;;5.00;;
45676;SDS011;31390;51.186;6.830;2022-08-30T05:33:45;9.93;;;5.43;;
45676;SDS011;31390;51.186;6.830;2022-08-30T05:36:13;9.60;;;5.90;;
45676;SDS011;31390;51.186;6.830;2022-08-30T05:38:40;8.63;;;5.63;;
45676;SDS011;31390;51.186;6.830;2022-08-30T05:41:07;7.22;;;4.88;;
45676;SDS011;31390;51.186;6.830;2022-08-30T05:43:36;11.95;;;5.85;;
45676;SDS011;31390;51.186;6.830;2022-08-30T05:46:04;7.20;;;5.53;;
45676;SDS011;31390;51.186;6.830;2022-08-30T05:48:32;8.57;;;6.22;;
45676;SDS011;31390;51.186;6.830;2022-08-30T05:51:04;8.75;;;5.30;;
45676;SDS011;31390;51.186;6.830;2022-08-30T05:53:31;8.15;;;5.60;;
45676;SDS011;31390;51.186;6.830;2022-08-30T05:56:00;9.35;;;5.13;;
45676;SDS011;31390;51.186;6.830;2022-08-30T05:58:27;7.05;;;5.47;;
45676;SDS011;31390;51.186;6.830;2022-08-30T06:00:53;9.45;;;5.03;;
45676;SDS011;31390;51.186;6.830;2022-08-30T06:03:20;10.82;;;4.82;;
45676;SDS011;31390;51.186;6.830;2022-08-30T06:05:46;7.18;;;4.93;;
45676;SDS011;31390;51.186;6.830;2022-08-30T06:08:18;9.93;;;5.30;;
45676;SDS011;31390;51.186;6.830;2022-08-30T06:10:45;6.60;;;4.63;;
45676;SDS011;31390;51.186;6.830;2022-08-30T06:13:12;8.27;;;4.80;;
45676;SDS011;31390;51.186;6.830;2022-08-30T06:15:38;8.63;;;4.68;;
45676;SDS011;31390;51.186;6.830;2022-08-30T06:18:05;9.02;;;5.43;;
45676;SDS011;31390;51.186;6.830;2022-08-30T06:20:37;10.48;;;5.03;;
45676;SDS011;31390;51.186;6.830;2022-08-30T06:23:04;7.93;;;4.65;;
45676;SDS011;31390;51.186;6.830;2022-08-30T06:25:33;13.70;;;4.65;;
45676;SDS011;31390;51.186;6.830;2022-08-30T06:28:07;5.60;;;3.70;;
45676;SDS011;31390;51.186;6.830;2022-08-30T06:30:35;8.00;;;4.28;;
45676;SDS011;31390;51.186;6.830;2022-08-30T06:33:02;8.73;;;4.18;;
45676;SDS011;31390;51.186;6.830;2022-08-30T06:35:28;7.22;;;4.30;;
45676;SDS011;31390;51.186;6.830;2022-08-30T06:38:00;6.57;;;4.07;;
45676;SDS011;31390;51.186;6.830;2022-08-30T06:40:27;8.23;;;4.55;;
45676;SDS011;31390;51.186;6.830;2022-08-30T06:42:53;5.75;;;3.55;;
45676;SDS011;31390;51.186;6.830;2022-08-30T06:45:20;7.63;;;4.03;;
45676;SDS011;31390;51.186;6.830;2022-08-30T06:47:46;5.68;;;4.00;;
45676;SDS011;31390;51.186;6.830;2022-08-30T06:50:15;9.52;;;3.97;;
45676;SDS011;31390;51.186;6.830;2022-08-30T06:52:44;6.65;;;3.80;;
45676;SDS011;31390;51.186;6.830;2022-08-30T06:55:14;5.80;;;3.47;;
45676;SDS011;31390;51.186;6.830;2022-08-30T06:57:44;6.68;;;4.13;;
45676;SDS011;31390;51.186;6.830;2022-08-30T07:00:14;9.68;;;3.50;;
45676;SDS011;31390;51.186;6.830;2022-08-30T07:02:41;4.70;;;3.47;;
45676;SDS011;31390;51.186;6.830;2022-08-30T07:05:17;5.50;;;3.42;;
45676;SDS011;31390;51.186;6.830;2022-08-30T07:07:49;6.43;;;3.83;;
45676;SDS011;31390;51.186;6.830;2022-08-30T07:10:17;6.55;;;3.72;;
45676;SDS011;31390;51.186;6.830;2022-08-30T07:12:43;6.43;;;4.18;;
45676;SDS011;31390;51.186;6.830;2022-08-30T07:15:10;8.73;;;3.65;;
45676;SDS011;31390;51.186;6.830;2022-08-30T07:17:39;9.07;;;4.07;;
45676;SDS011;31390;51.186;6.830;2022-08-30T07:20:26;7.60;;;3.47;;
45676;SDS011;31390;51.186;6.830;2022-08-30T07:23:06;7.72;;;3.50;;
45676;SDS011;31390;51.186;6.830;2022-08-30T07:25:34;5.75;;;3.35;;
45676;SDS011;31390;51.186;6.830;2022-08-30T07:28:03;5.43;;;3.92;;
45676;SDS011;31390;51.186;6.830;2022-08-30T07:30:37;15.88;;;3.70;;
45676;SDS011;31390;51.186;6.830;2022-08-30T07:33:04;4.95;;;3.60;;
45676;SDS011;31390;51.186;6.830;2022-08-30T07:35:33;4.72;;;3.53;;
45676;SDS011;31390;51.186;6.830;2022-08-30T07:38:00;8.60;;;3.67;;
45676;SDS011;31390;51.186;6.830;2022-08-30T07:40:27;6.32;;;3.75;;
45676;SDS011;31390;51.186;6.830;2022-08-30T07:42:53;7.20;;;3.88;;
45676;SDS011;31390;51.186;6.830;2022-08-30T07:45:20;8.88;;;3.47;;
45676;SDS011;31390;51.186;6.830;2022-08-30T07:47:47;5.82;;;3.40;;
45676;SDS011;31390;51.186;6.830;2022-08-30T07:50:17;8.02;;;3.55;;
45676;SDS011;31390;51.186;6.830;2022-08-30T07:52:44;8.20;;;3.80;;
45676;SDS011;31390;51.186;6.830;2022-08-30T07:55:10;5.47;;;3.28;;
45676;SDS011;31390;51.186;6.830;2022-08-30T07:57:37;5.60;;;3.13;;
45676;SDS011;31390;51.186;6.830;2022-08-30T08:00:03;8.23;;;3.47;;
45676;SDS011;31390;51.186;6.830;2022-08-30T08:02:36;4.78;;;3.33;;
45676;SDS011;31390;51.186;6.830;2022-08-30T08:05:06;6.57;;;3.40;;
45676;SDS011;31390;51.186;6.830;2022-08-30T08:07:33;4.97;;;3.13;;
45676;SDS011;31390;51.186;6.830;2022-08-30T08:10:00;9.30;;;3.60;;
45676;SDS011;31390;51.186;6.830;2022-08-30T08:12:30;5.80;;;2.97;;
45676;SDS011;31390;51.186;6.830;2022-08-30T08:15:00;8.75;;;3.15;;
45676;SDS011;31390;51.186;6.830;2022-08-30T08:17:33;11.05;;;3.90;;
45676;SDS011;31390;51.186;6.830;2022-08-30T08:19:59;8.60;;;3.25;;
45676;SDS011;31390;51.186;6.830;2022-08-30T08:22:26;5.25;;;3.03;;
45676;SDS011;31390;51.186;6.830;2022-08-30T08:24:52;7.82;;;3.10;;
45676;SDS011;31390;51.186;6.830;2022-08-30T08:27:19;9.10;;;3.13;;
45676;SDS011;31390;51.186;6.830;2022-08-30T08:29:52;6.30;;;3.05;;
45676;SDS011;31390;51.186;6.830;2022-08-30T08:32:20;5.25;;;3.00;;
45676;SDS011;31390;51.186;6.830;2022-08-30T08:34:47;4.78;;;3.00;;
45676;SDS011;31390;51.186;6.830;2022-08-30T08:37:15;7.60;;;3.08;;
45676;SDS011;31390;51.186;6.830;2022-08-30T08:39:46;3.45;;;2.60;;
45676;SDS011;31390;51.186;6.830;2022-08-30T08:42:23;2.88;;;2.47;;
45676;SDS011;31390;51.186;6.830;2022-08-30T08:44:56;6.00;;;2.97;;
45676;SDS011;31390;51.186;6.830;2022-08-30T08:47:32;7.88;;;3.10;;
45676;SDS011;31390;51.186;6.830;2022-08-30T08:50:04;6.90;;;3.08;;
45676;SDS011;31390;51.186;6.830;2022-08-30T08:55:44;7.57;;;3.45;;
45676;SDS011;31390;51.186;6.830;2022-08-30T08:58:27;4.95;;;2.60;;
45676;SDS011;31390;51.186;6.830;2022-08-30T09:00:55;10.35;;;3.60;;
45676;SDS011;31390;51.186;6.830;2022-08-30T09:03:24;5.55;;;3.20;;
45676;SDS011;31390;51.186;6.830;2022-08-30T09:05:51;4.85;;;2.75;;
45676;SDS011;31390;51.186;6.830;2022-08-30T09:08:19;6.97;;;2.53;;
45676;SDS011;31390;51.186;6.830;2022-08-30T09:11:07;4.90;;;3.03;;
45676;SDS011;31390;51.186;6.830;2022-08-30T09:13:41;4.80;;;3.20;;
45676;SDS011;31390;51.186;6.830;2022-08-30T09:16:10;4.03;;;2.65;;
45676;SDS011;31390;51.186;6.830;2022-08-30T09:18:57;6.70;;;2.60;;
45676;SDS011;31390;51.186;6.830;2022-08-30T09:21:25;3.45;;;2.42;;
45676;SDS011;31390;51.186;6.830;2022-08-30T09:23:58;7.18;;;3.58;;
45676;SDS011;31390;51.186;6.830;2022-08-30T09:26:29;4.55;;;2.85;;
45676;SDS011;31390;51.186;6.830;2022-08-30T09:28:56;3.92;;;2.53;;
45676;SDS011;31390;51.186;6.830;2022-08-30T09:31:29;4.65;;;2.78;;
45676;SDS011;31390;51.186;6.830;2022-08-30T09:34:06;5.00;;;2.92;;
45676;SDS011;31390;51.186;6.830;2022-08-30T09:39:06;2.80;;;2.45;;
45676;SDS011;31390;51.186;6.830;2022-08-30T09:41:41;5.72;;;2.95;;
45676;SDS011;31390;51.186;6.830;2022-08-30T09:44:17;2.13;;;1.90;;
45676;SDS011;31390;51.186;6.830;2022-08-30T09:46:48;7.47;;;2.75;;
45676;SDS011;31390;51.186;6.830;2022-08-30T09:54:56;4.55;;;2.40;;
45676;SDS011;31390;51.186;6.830;2022-08-30T09:57:30;6.75;;;2.67;;
45676;SDS011;31390;51.186;6.830;2022-08-30T10:00:11;4.82;;;2.47;;
45676;SDS011;31390;51.186;6.830;2022-08-30T10:05:21;3.33;;;2.60;;
45676;SDS011;31390;51.186;6.830;2022-08-30T10:15:34;8.88;;;2.83;;
45676;SDS011;31390;51.186;6.830;2022-08-30T10:20:35;3.85;;;2.35;;
45676;SDS011;31390;51.186;6.830;2022-08-30T10:23:11;5.03;;;2.40;;
45676;SDS011;31390;51.186;6.830;2022-08-30T10:28:13;5.05;;;2.60;;
45676;SDS011;31390;51.186;6.830;2022-08-30T10:30:45;7.10;;;2.55;;
45676;SDS011;31390;51.186;6.830;2022-08-30T10:33:17;3.90;;;2.17;;
45676;SDS011;31390;51.186;6.830;2022-08-30T10:35:47;5.03;;;2.65;;
45676;SDS011;31390;51.186;6.830;2022-08-30T10:38:29;3.35;;;2.28;;
45676;SDS011;31390;51.186;6.830;2022-08-30T10:43:41;4.45;;;2.47;;
45676;SDS011;31390;51.186;6.830;2022-08-30T10:49:02;6.05;;;2.67;;
45676;SDS011;31390;51.186;6.830;2022-08-30T10:51:35;5.10;;;2.47;;
45676;SDS011;31390;51.186;6.830;2022-08-30T10:54:10;5.25;;;1.88;;
45676;SDS011;31390;51.186;6.830;2022-08-30T10:56:47;4.80;;;2.45;;
45676;SDS011;31390;51.186;6.830;2022-08-30T10:59:18;5.97;;;2.53;;
45676;SDS011;31390;51.186;6.830;2022-08-30T11:01:58;6.65;;;2.00;;
45676;SDS011;31390;51.186;6.830;2022-08-30T11:10:14;4.80;;;2.58;;
45676;SDS011;31390;51.186;6.830;2022-08-30T11:15:18;3.25;;;2.03;;
45676;SDS011;31390;51.186;6.830;2022-08-30T11:25:54;4.40;;;1.90;;
45676;SDS011;31390;51.186;6.830;2022-08-30T11:31:09;7.35;;;2.50;;
45676;SDS011;31390;51.186;6.830;2022-08-30T11:33:43;7.03;;;2.80;;
45676;SDS011;31390;51.186;6.830;2022-08-30T11:41:37;4.45;;;2.00;;
45676;SDS011;31390;51.186;6.830;2022-08-30T11:46:47;5.40;;;2.40;;
45676;SDS011;31390;51.186;6.830;2022-08-30T11:51:48;4.63;;;2.20;;
45676;SDS011;31390;51.186;6.830;2022-08-30T11:57:12;4.80;;;2.38;;
45676;SDS011;31390;51.186;6.830;2022-08-30T12:05:07;5.50;;;2.35;;
45676;SDS011;31390;51.186;6.830;2022-08-30T12:10:21;6.22;;;2.28;;
45676;SDS011;31390;51.186;6.830;2022-08-30T12:12:50;8.25;;;2.25;;
45676;SDS011;31390;51.186;6.830;2022-08-30T12:16:01;5.00;;;2.25;;
45676;SDS011;31390;51.186;6.830;2022-08-30T12:18:09;4.30;;;1.90;;
45676;SDS011;31390;51.186;6.830;2022-08-30T12:21:39;8.55;;;2.58;;
45676;SDS011;31390;51.186;6.830;2022-08-30T12:23:46;4.57;;;2.10;;
45676;SDS011;31390;51.186;6.830;2022-08-30T12:28:46;3.22;;;2.10;;
45676;SDS011;31390;51.186;6.830;2022-08-30T12:31:16;5.90;;;2.20;;
45676;SDS011;31390;51.186;6.830;2022-08-30T12:33:46;5.22;;;2.03;;
45676;SDS011;31390;51.186;6.830;2022-08-30T12:36:34;4.43;;;2.25;;
45676;SDS011;31390;51.186;6.830;2022-08-30T12:39:19;5.72;;;2.42;;
45676;SDS011;31390;51.186;6.830;2022-08-30T12:41:47;5.45;;;2.08;;
45676;SDS011;31390;51.186;6.830;2022-08-30T12:44:18;6.90;;;2.50;;
45676;SDS011;31390;51.186;6.830;2022-08-30T12:46:47;5.80;;;2.33;;
45676;SDS011;31390;51.186;6.830;2022-08-30T12:49:18;5.43;;;2.40;;
45676;SDS011;31390;51.186;6.830;2022-08-30T12:51:46;3.50;;;2.10;;
45676;SDS011;31390;51.186;6.830;2022-08-30T12:56:50;5.63;;;2.10;;
45676;SDS011;31390;51.186;6.830;2022-08-30T13:04:46;5.78;;;2.08;;
45676;SDS011;31390;51.186;6.830;2022-08-30T13:10:15;4.75;;;2.70;;
45676;SDS011;31390;51.186;6.830;2022-08-30T13:12:58;7.38;;;2.38;;
45676;SDS011;31390;51.186;6.830;2022-08-30T13:15:31;5.07;;;2.10;;
45676;SDS011;31390;51.186;6.830;2022-08-30T13:18:24;4.03;;;2.20;;
45676;SDS011;31390;51.186;6.830;2022-08-30T13:21:08;5.80;;;2.40;;
45676;SDS011;31390;51.186;6.830;2022-08-30T13:23:35;5.35;;;1.90;;
45676;SDS011;31390;51.186;6.830;2022-08-30T13:26:04;4.78;;;2.28;;
45676;SDS011;31390;51.186;6.830;2022-08-30T13:28:40;3.58;;;2.20;;
45676;SDS011;31390;51.186;6.830;2022-08-30T13:31:08;3.72;;;2.08;;
45676;SDS011;31390;51.186;6.830;2022-08-30T13:33:35;5.00;;;2.00;;
45676;SDS011;31390;51.186;6.830;2022-08-30T13:36:01;5.15;;;2.22;;
45676;SDS011;31390;51.186;6.830;2022-08-30T13:38:28;6.43;;;2.30;;
45676;SDS011;31390;51.186;6.830;2022-08-30T13:40:54;6.15;;;2.25;;
45676;SDS011;31390;51.186;6.830;2022-08-30T13:43:21;4.18;;;2.60;;
45676;SDS011;31390;51.186;6.830;2022-08-30T13:45:48;7.55;;;2.20;;
45676;SDS011;31390;51.186;6.830;2022-08-30T13:48:17;5.93;;;2.10;;
45676;SDS011;31390;51.186;6.830;2022-08-30T13:50:50;6.82;;;2.28;;
45676;SDS011;31390;51.186;6.830;2022-08-30T13:53:18;4.38;;;2.20;;
45676;SDS011;31390;51.186;6.830;2022-08-30T13:56:04;4.28;;;2.15;;
45676;SDS011;31390;51.186;6.830;2022-08-30T13:58:32;4.70;;;2.35;;
45676;SDS011;31390;51.186;6.830;2022-08-30T14:00:59;4.38;;;2.20;;
45676;SDS011;31390;51.186;6.830;2022-08-30T14:03:25;4.78;;;2.38;;
45676;SDS011;31390;51.186;6.830;2022-08-30T14:05:52;5.63;;;2.03;;
45676;SDS011;31390;51.186;6.830;2022-08-30T14:08:38;4.68;;;2.15;;
45676;SDS011;31390;51.186;6.830;2022-08-30T14:11:16;7.05;;;2.25;;
45676;SDS011;31390;51.186;6.830;2022-08-30T14:13:44;3.70;;;2.17;;
45676;SDS011;31390;51.186;6.830;2022-08-30T14:16:32;2.78;;;2.42;;
45676;SDS011;31390;51.186;6.830;2022-08-30T14:18:59;5.65;;;2.10;;
45676;SDS011;31390;51.186;6.830;2022-08-30T14:21:27;6.00;;;2.10;;
45676;SDS011;31390;51.186;6.830;2022-08-30T14:23:53;3.05;;;2.17;;
45676;SDS011;31390;51.186;6.830;2022-08-30T14:26:23;4.45;;;2.13;;
45676;SDS011;31390;51.186;6.830;2022-08-30T14:28:57;4.25;;;2.30;;
45676;SDS011;31390;51.186;6.830;2022-08-30T14:31:24;2.70;;;2.03;;
45676;SDS011;31390;51.186;6.830;2022-08-30T14:33:50;5.00;;;2.22;;
45676;SDS011;31390;51.186;6.830;2022-08-30T14:36:17;4.97;;;2.30;;
45676;SDS011;31390;51.186;6.830;2022-08-30T14:38:43;7.35;;;2.35;;
45676;SDS011;31390;51.186;6.830;2022-08-30T14:41:10;4.05;;;2.50;;
45676;SDS011;31390;51.186;6.830;2022-08-30T14:43:37;6.95;;;2.40;;
45676;SDS011;31390;51.186;6.830;2022-08-30T14:46:06;6.05;;;2.33;;
45676;SDS011;31390;51.186;6.830;2022-08-30T14:48:33;4.93;;;2.42;;
45676;SDS011;31390;51.186;6.830;2022-08-30T14:51:00;5.10;;;2.70;;
45676;SDS011;31390;51.186;6.830;2022-08-30T14:53:27;2.70;;;2.25;;
45676;SDS011;31390;51.186;6.830;2022-08-30T14:55:53;5.97;;;2.35;;
45676;SDS011;31390;51.186;6.830;2022-08-30T14:58:20;4.90;;;2.50;;
45676;SDS011;31390;51.186;6.830;2022-08-30T15:00:50;6.57;;;2.60;;
45676;SDS011;31390;51.186;6.830;2022-08-30T15:03:18;8.73;;;2.45;;
45676;SDS011;31390;51.186;6.830;2022-08-30T15:05:50;4.47;;;2.63;;
45676;SDS011;31390;51.186;6.830;2022-08-30T15:08:18;4.80;;;2.42;;
45676;SDS011;31390;51.186;6.830;2022-08-30T15:10:45;4.43;;;2.72;;
45676;SDS011;31390;51.186;6.830;2022-08-30T15:13:12;3.25;;;2.55;;
45676;SDS011;31390;51.186;6.830;2022-08-30T15:15:40;4.13;;;2.35;;
45676;SDS011;31390;51.186;6.830;2022-08-30T15:18:07;4.93;;;2.50;;
45676;SDS011;31390;51.186;6.830;2022-08-30T15:20:34;7.43;;;2.58;;
45676;SDS011;31390;51.186;6.830;2022-08-30T15:23:00;4.57;;;2.83;;
45676;SDS011;31390;51.186;6.830;2022-08-30T15:25:27;3.13;;;2.60;;
45676;SDS011;31390;51.186;6.830;2022-08-30T15:27:53;4.88;;;2.58;;
45676;SDS011;31390;51.186;6.830;2022-08-30T15:30:21;6.10;;;2.70;;
45676;SDS011;31390;51.186;6.830;2022-08-30T15:32:47;6.30;;;2.55;;
45676;SDS011;31390;51.186;6.830;2022-08-30T15:35:14;4.85;;;2.60;;
45676;SDS011;31390;51.186;6.830;2022-08-30T15:37:41;4.28;;;2.35;;
45676;SDS011;31390;51.186;6.830;2022-08-30T15:40:08;5.70;;;2.55;;
45676;SDS011;31390;51.186;6.830;2022-08-30T15:42:35;7.55;;;2.35;;
45676;SDS011;31390;51.186;6.830;2022-08-30T15:45:02;4.80;;;2.13;;
45676;SDS011;31390;51.186;6.830;2022-08-30T15:47:28;3.17;;;2.53;;
45676;SDS011;31390;51.186;6.830;2022-08-30T15:49:57;3.55;;;2.60;;
45676;SDS011;31390;51.186;6.830;2022-08-30T15:52:24;3.63;;;2.40;;
45676;SDS011;31390;51.186;6.830;2022-08-30T15:54:52;3.78;;;2.33;;
45676;SDS011;31390;51.186;6.830;2022-08-30T15:57:19;2.90;;;2.30;;
45676;SDS011;31390;51.186;6.830;2022-08-30T15:59:46;4.03;;;2.40;;
45676;SDS011;31390;51.186;6.830;2022-08-30T16:02:13;2.88;;;2.20;;
45676;SDS011;31390;51.186;6.830;2022-08-30T16:04:42;6.05;;;2.60;;
45676;SDS011;31390;51.186;6.830;2022-08-30T16:07:08;2.50;;;2.30;;
45676;SDS011;31390;51.186;6.830;2022-08-30T16:09:35;3.47;;;2.35;;
45676;SDS011;31390;51.186;6.830;2022-08-30T16:12:04;3.90;;;2.10;;
45676;SDS011;31390;51.186;6.830;2022-08-30T16:14:31;2.92;;;2.35;;
45676;SDS011;31390;51.186;6.830;2022-08-30T16:16:58;3.83;;;2.47;;
45676;SDS011;31390;51.186;6.830;2022-08-30T16:19:25;7.15;;;2.28;;
45676;SDS011;31390;51.186;6.830;2022-08-30T16:21:51;3.95;;;2.58;;
45676;SDS011;31390;51.186;6.830;2022-08-30T16:24:20;4.85;;;2.45;;
45676;SDS011;31390;51.186;6.830;2022-08-30T16:26:48;4.72;;;2.40;;
45676;SDS011;31390;51.186;6.830;2022-08-30T16:29:15;4.28;;;2.67;;